Poulsbo, WA (98370)

10:55 AM PST on March 02, 2015 (GMT -0800)
Central Market Poulsbo | Change Station
CLOSE
Current Station
Personal Weather Station
Location: Poulsbo, WA
Elevation: 68 ft
Nearby Weather Stations

Elev 68 ft 47.75 °N, 122.64 °W | Updated 16 seconds ago

Partly Cloudy
Partly Cloudy
49.2 °F
Feels Like 47 °F
N
5.0
Wind Variable Wind from North
Gusts 16.0 mph

Today
High -- | Low -- °F
--% Chance of Precip.
Yesterday
High -- | Low -- °F
Precip. -- in
6:49 AM 5:56 PM
Waxing Gibbous, 92% visible
Pressure 30.06 in
Visibility 10.0 miles
Clouds Clear
Windchill 47 °F
Dew Point 38 °F
Humidity 66%
Rainfall 0.00 in
Snow Depth 4 in
UV 3 out of 12
Pollen 7.60 out of 12
Air Quality Not available.
Flu Activity Regional
METAR KPWT 021835Z AUTO 02010KT 10SM CLR 08/02 A3006 RMK AO1

More Conditions Fewer Conditions

Pressure 30.06 in
Visibility 10.0 miles
Clouds Clear
Windchill 47 °F
Dew Point 38 °F
Humidity 66%
Rainfall 0.00 in
Snow Depth 4 in
UV 3 out of 12
Pollen 7.60 out of 12
Air Quality Not available.
Flu Activity Regional
METAR KPWT 021835Z AUTO 02010KT 10SM CLR 08/02 A3006 RMK AO1

More Conditions Fewer Conditions

10-Day Weather Forecast

Almanac

Astronomy

Mar. 02, 2015 Rise Set
Actual Time 6:49 AM PST 5:56 PM PST
Civil Twilight 6:18 AM PST 6:27 PM PST
Nautical Twilight 5:42 AM PST 7:03 PM PST
Astronomical Twilight 5:07 AM PST 7:39 PM PST
Moon 3:23 PM PST 5:05 AM PST
Length of Visible Light 12h 09m
Length of Day
11h 07m
Tomorrow will be 3m 25s longer.
Waxing Gibbous, 92% of the Moon is Illuminated
Today
Waxing Gibbous
Mar 5
Full
Mar 13
Last Quarter
Mar 20
New
Mar 27
First Quarter

Today's Extremes

State Highs State Lows

Community

WunderPhotos

Upload Photos

1,801,906 photos uploaded!

Nearby

Snow Depth

Station Depth Elevation
Mount Crag 4 in 4050 ft
Dungeness 3 in 4100 ft
Waterhole 170 in 5000 ft
Alpine Meadows 1 in 3500 ft
Mount Gardner 0 in 3000 ft

Earthquake Activity

City Distance Mag. Time & Date
No recent earthquake activity has been reported nearby.
Minimum magnitude displayed is 2.5.

Coastal Water Temperatures

Place Temperature
Port Townsend, WA 48.0 °F
Seattle, WA 48.9 °F
Friday Harbor, WA 48.0 °F
Tacoma, WA 48.0 °F

Nearby Weather Stations